createdAt,value
2018-04-12T00:01:50.008Z,14.66
2018-04-12T00:04:18.349Z,14.59
2018-04-12T00:06:46.760Z,14.73
2018-04-12T00:09:15.065Z,14.77
2018-04-12T00:11:43.421Z,14.80
2018-04-12T00:14:11.802Z,14.88
2018-04-12T00:16:40.177Z,14.82
2018-04-12T00:19:08.554Z,14.88
2018-04-12T00:21:36.878Z,14.91
2018-04-12T00:24:05.204Z,14.95
2018-04-12T00:26:33.590Z,14.87
2018-04-12T00:29:01.906Z,14.90
2018-04-12T00:31:30.222Z,14.88
2018-04-12T00:33:58.613Z,14.87
2018-04-12T00:36:26.932Z,14.85
2018-04-12T00:38:55.239Z,14.77
2018-04-12T00:41:23.569Z,14.84
2018-04-12T00:43:51.929Z,14.80
2018-04-12T00:46:20.301Z,14.77
2018-04-12T00:48:48.632Z,14.81
2018-04-12T00:51:16.942Z,14.79
2018-04-12T00:53:57.225Z,14.67
2018-04-12T00:56:25.546Z,14.74
2018-04-12T00:58:53.866Z,14.74
2018-04-12T01:01:22.192Z,14.82
2018-04-12T01:03:50.512Z,14.77
2018-04-12T01:06:18.905Z,14.63
2018-04-12T01:08:47.276Z,14.66
2018-04-12T01:11:15.597Z,14.67
2018-04-12T01:13:43.901Z,14.68
2018-04-12T01:16:12.237Z,14.79
2018-04-12T01:18:40.545Z,14.75
2018-04-12T01:21:08.857Z,14.67
2018-04-12T01:23:37.184Z,14.59
2018-04-12T01:26:05.508Z,14.48
2018-04-12T01:28:33.888Z,14.56
2018-04-12T01:31:02.214Z,14.44
2018-04-12T01:33:30.596Z,14.39
2018-04-12T01:35:58.930Z,14.50
2018-04-12T01:38:27.293Z,14.56
2018-04-12T01:40:55.728Z,14.55
2018-04-12T01:43:24.025Z,14.50
2018-04-12T01:45:52.396Z,14.52
2018-04-12T01:48:20.820Z,14.58
2018-04-12T01:50:49.138Z,14.56
2018-04-12T01:53:17.499Z,14.54
2018-04-12T01:55:45.804Z,14.49
2018-04-12T01:58:14.172Z,14.43
2018-04-12T02:00:42.502Z,14.43
2018-04-12T02:03:10.808Z,14.44
2018-04-12T02:05:40.187Z,14.32
2018-04-12T02:08:08.565Z,14.30
2018-04-12T02:10:36.885Z,14.25
2018-04-12T02:13:05.202Z,14.23
2018-04-12T02:15:33.544Z,14.21
2018-04-12T02:18:02.862Z,14.24
2018-04-12T02:20:31.164Z,14.17
2018-04-12T02:22:59.502Z,14.19
2018-04-12T02:25:27.818Z,14.16
2018-04-12T02:27:56.257Z,14.10
2018-04-12T02:30:24.565Z,14.05
2018-04-12T02:32:52.881Z,13.97
2018-04-12T02:35:21.229Z,13.97
2018-04-12T02:37:49.545Z,13.99
2018-04-12T02:40:17.861Z,13.88
2018-04-12T02:42:46.186Z,13.99
2018-04-12T02:45:14.551Z,13.93
2018-04-12T02:47:42.865Z,13.83
2018-04-12T02:50:11.209Z,13.83
2018-04-12T02:52:39.572Z,13.82
2018-04-12T02:55:07.965Z,13.71
2018-04-12T02:57:37.077Z,13.65
2018-04-12T03:00:05.393Z,13.56
2018-04-12T03:02:33.813Z,13.51
2018-04-12T03:05:02.186Z,13.49
2018-04-12T03:07:30.508Z,13.45
2018-04-12T03:09:58.838Z,13.45
2018-04-12T03:12:27.218Z,13.40
2018-04-12T03:14:55.526Z,13.39
2018-04-12T03:17:23.877Z,13.25
2018-04-12T03:19:52.257Z,13.25
2018-04-12T03:22:20.581Z,13.15
2018-04-12T03:24:48.966Z,13.26
2018-04-12T03:27:17.285Z,13.21
2018-04-12T03:29:45.594Z,13.17
2018-04-12T03:32:13.929Z,13.19
2018-04-12T03:34:42.237Z,13.13
2018-04-12T03:37:10.558Z,13.12
2018-04-12T03:39:38.887Z,13.05
2018-04-12T03:42:07.288Z,13.15
2018-04-12T03:44:35.613Z,13.16
2018-04-12T03:47:03.960Z,13.15
2018-04-12T03:49:32.277Z,13.09
2018-04-12T03:52:00.701Z,13.25
2018-04-12T03:54:29.032Z,13.27
2018-04-12T03:56:58.329Z,13.37
2018-04-12T03:59:26.637Z,13.37
2018-04-12T04:01:54.993Z,13.42
2018-04-12T04:04:23.326Z,13.49
2018-04-12T04:06:51.645Z,13.40
2018-04-12T04:09:20.020Z,13.33
2018-04-12T04:11:48.359Z,13.39
2018-04-12T04:14:28.604Z,13.50
2018-04-12T04:17:08.913Z,13.50
2018-04-12T04:19:49.172Z,13.37
2018-04-12T04:22:17.490Z,13.34
2018-04-12T04:24:45.880Z,13.24
2018-04-12T04:27:14.209Z,13.31
2018-04-12T04:29:42.625Z,13.19
2018-04-12T04:32:10.928Z,13.20
2018-04-12T04:34:39.345Z,13.21
2018-04-12T04:37:07.657Z,13.19
2018-04-12T04:39:35.989Z,13.11
2018-04-12T04:42:04.311Z,13.05
2018-04-12T04:44:32.624Z,13.01
2018-04-12T04:47:00.952Z,13.06
2018-04-12T04:49:29.315Z,12.95
2018-04-12T04:51:57.646Z,13.02
2018-04-12T04:54:25.962Z,13.03
2018-04-12T04:56:54.289Z,13.03
2018-04-12T04:59:22.653Z,13.13
2018-04-12T05:01:50.957Z,13.07
2018-04-12T05:04:19.347Z,13.04
2018-04-12T05:06:47.654Z,12.95
2018-04-12T05:09:15.972Z,12.87
2018-04-12T05:11:44.341Z,12.83
2018-04-12T05:14:12.654Z,12.88
2018-04-12T05:16:41.069Z,12.82
2018-04-12T05:19:09.400Z,12.90
2018-04-12T05:21:37.718Z,12.84
2018-04-12T05:24:06.060Z,12.85
2018-04-12T05:26:34.384Z,12.92
2018-04-12T05:29:02.710Z,12.94
2018-04-12T05:31:31.166Z,13.04
2018-04-12T05:33:59.541Z,13.08
2018-04-12T05:36:27.859Z,13.09
2018-04-12T05:38:56.298Z,13.19
2018-04-12T05:41:24.737Z,13.40
2018-04-12T05:43:53.073Z,13.49
2018-04-12T05:46:21.435Z,13.58
2018-04-12T05:48:49.757Z,13.62
2018-04-12T05:51:18.145Z,13.74
2018-04-12T05:53:46.464Z,13.80
2018-04-12T05:56:14.920Z,13.88
2018-04-12T05:58:43.249Z,14.04
2018-04-12T06:01:11.573Z,14.14
2018-04-12T06:03:40.043Z,14.17
2018-04-12T06:06:08.417Z,14.26
2018-04-12T06:08:37.146Z,14.27
2018-04-12T06:11:05.492Z,14.38
2018-04-12T06:13:33.839Z,14.43
2018-04-12T06:16:02.168Z,14.49
2018-04-12T06:18:30.522Z,14.58
2018-04-12T06:20:58.854Z,14.64
2018-04-12T06:23:27.199Z,14.67
2018-04-12T06:25:55.803Z,14.84
2018-04-12T06:28:24.125Z,14.93
2018-04-12T06:30:52.462Z,15.01
2018-04-12T06:33:20.801Z,15.10
2018-04-12T06:35:49.197Z,15.20
2018-04-12T06:38:17.546Z,15.26
2018-04-12T06:40:45.876Z,15.31
2018-04-12T06:43:14.204Z,15.41
2018-04-12T06:45:42.617Z,15.52
2018-04-12T06:48:10.950Z,15.63
2018-04-12T06:50:39.332Z,15.58
2018-04-12T06:53:07.721Z,15.68
2018-04-12T06:55:36.035Z,15.93
2018-04-12T06:58:04.371Z,16.07
2018-04-12T07:00:32.701Z,16.17
2018-04-12T07:03:01.010Z,16.34
2018-04-12T07:05:29.329Z,16.31
2018-04-12T07:07:57.645Z,16.45
2018-04-12T07:10:25.945Z,16.40
2018-04-12T07:12:54.320Z,16.44
2018-04-12T07:15:22.702Z,16.61
2018-04-12T07:17:51.030Z,16.70
2018-04-12T07:20:19.345Z,16.84
2018-04-12T07:22:47.680Z,16.88
2018-04-12T07:25:15.985Z,17.06
2018-04-12T07:27:44.297Z,17.22
2018-04-12T07:30:12.670Z,17.59
2018-04-12T07:32:41.029Z,17.55
2018-04-12T07:35:09.407Z,17.52
2018-04-12T07:37:37.739Z,17.68
2018-04-12T07:40:06.073Z,17.77
2018-04-12T07:42:34.376Z,18.02
2018-04-12T07:45:02.738Z,18.11
2018-04-12T07:47:31.153Z,18.16
2018-04-12T07:49:59.486Z,18.23
2018-04-12T07:52:27.865Z,18.26
2018-04-12T07:54:56.181Z,18.21
2018-04-12T07:57:24.493Z,18.40
2018-04-12T07:59:52.824Z,18.41
2018-04-12T08:02:21.146Z,18.38
2018-04-12T08:04:49.552Z,18.51
2018-04-12T08:07:17.878Z,18.48
2018-04-12T08:09:46.210Z,18.60
2018-04-12T08:12:14.538Z,18.69
2018-04-12T08:14:42.865Z,18.79
2018-04-12T08:17:11.184Z,18.77
2018-04-12T08:19:39.497Z,19.02
2018-04-12T08:22:07.817Z,19.01
2018-04-12T08:24:36.139Z,19.01
2018-04-12T08:27:04.545Z,19.19
2018-04-12T08:29:32.877Z,19.43
2018-04-12T08:32:01.205Z,19.41
2018-04-12T08:34:29.553Z,19.51
2018-04-12T08:36:57.957Z,19.51
2018-04-12T08:39:26.337Z,19.56
2018-04-12T08:41:54.677Z,19.71
2018-04-12T08:44:22.999Z,20.12
2018-04-12T08:46:51.457Z,20.02
2018-04-12T08:49:19.769Z,20.46
2018-04-12T08:51:48.249Z,20.53
2018-04-12T08:54:16.608Z,20.53
2018-04-12T08:56:44.929Z,20.60
2018-04-12T08:59:13.318Z,20.70
2018-04-12T09:01:41.649Z,20.68
2018-04-12T09:04:09.970Z,20.58
2018-04-12T09:06:38.440Z,20.99
2018-04-12T09:09:06.736Z,20.90
2018-04-12T09:11:35.066Z,20.82
2018-04-12T09:14:03.430Z,21.03
2018-04-12T09:16:31.747Z,20.94
2018-04-12T09:19:00.088Z,20.91
2018-04-12T09:21:28.463Z,21.11
2018-04-12T09:23:56.881Z,21.27
2018-04-12T09:26:25.194Z,21.40
2018-04-12T09:28:53.539Z,21.17
2018-04-12T09:31:21.877Z,21.34
2018-04-12T09:33:50.206Z,21.62
2018-04-12T09:36:18.630Z,22.04
2018-04-12T09:38:46.952Z,21.62
2018-04-12T09:41:15.384Z,21.00
2018-04-12T09:46:11.062Z,21.73
2018-04-12T09:48:40.413Z,21.35
2018-04-12T09:51:08.801Z,21.31
2018-04-12T09:53:37.125Z,21.37
2018-04-12T09:56:05.521Z,21.97
2018-04-12T09:58:33.832Z,22.22
2018-04-12T10:01:17.029Z,22.50
2018-04-12T10:03:45.478Z,22.68
2018-04-12T10:06:19.369Z,22.66
2018-04-12T10:08:53.460Z,22.57
2018-04-12T10:11:21.745Z,21.97
2018-04-12T10:13:50.074Z,22.35
2018-04-12T10:16:18.430Z,22.70
2018-04-12T10:18:46.725Z,22.51
2018-04-12T10:21:16.021Z,23.00
2018-04-12T10:23:44.421Z,22.95
2018-04-12T10:26:12.803Z,22.72
2018-04-12T10:28:41.224Z,22.70
2018-04-12T10:31:09.549Z,23.06
2018-04-12T10:33:37.951Z,22.99
2018-04-12T10:36:06.334Z,23.35
2018-04-12T10:38:34.665Z,23.08
2018-04-12T10:41:02.992Z,23.00
2018-04-12T10:43:31.380Z,23.24
2018-04-12T10:45:59.707Z,23.15
2018-04-12T10:48:28.020Z,23.09
2018-04-12T10:50:56.360Z,23.02
2018-04-12T10:53:24.694Z,23.06
2018-04-12T10:55:53.015Z,23.31
2018-04-12T10:58:21.327Z,23.51
2018-04-12T11:00:49.637Z,23.45
2018-04-12T11:03:17.992Z,23.20
2018-04-12T11:05:46.330Z,23.60
2018-04-12T11:08:14.645Z,23.98
2018-04-12T11:10:43.058Z,23.53
2018-04-12T11:13:11.421Z,23.50
2018-04-12T11:15:39.816Z,23.58
2018-04-12T11:18:08.154Z,23.70
2018-04-12T11:20:36.461Z,23.83
2018-04-12T11:23:04.847Z,23.25
2018-04-12T11:25:33.160Z,22.87
2018-04-12T11:28:01.565Z,23.22
2018-04-12T11:30:29.893Z,23.88
2018-04-12T11:32:58.239Z,24.63
2018-04-12T11:35:26.625Z,25.12
2018-04-12T11:37:56.758Z,24.32
2018-04-12T11:40:25.141Z,24.33
2018-04-12T11:42:53.484Z,24.74
2018-04-12T11:45:21.772Z,24.90
2018-04-12T11:47:50.096Z,24.00
2018-04-12T11:50:18.512Z,23.93
2018-04-12T11:52:46.866Z,24.26
2018-04-12T11:55:15.180Z,24.73
2018-04-12T11:57:43.508Z,24.71
2018-04-12T12:00:11.835Z,25.20
2018-04-12T12:02:40.152Z,24.82
2018-04-12T12:05:09.454Z,25.34
2018-04-12T12:07:37.789Z,25.96
2018-04-12T12:10:06.137Z,26.38
2018-04-12T12:12:34.453Z,26.80
2018-04-12T12:15:02.795Z,26.68
2018-04-12T12:17:31.107Z,27.06
2018-04-12T12:19:59.468Z,26.46
2018-04-12T12:22:27.785Z,25.97
2018-04-12T12:24:56.101Z,26.20
2018-04-12T12:27:24.426Z,25.21
2018-04-12T12:29:52.752Z,25.15
2018-04-12T12:32:21.076Z,25.52
2018-04-12T12:34:49.421Z,26.90
2018-04-12T12:37:17.796Z,25.96
2018-04-12T12:39:46.171Z,28.29
2018-04-12T12:42:14.580Z,29.17
2018-04-12T12:44:42.933Z,28.66
2018-04-12T12:47:11.294Z,29.82
2018-04-12T12:49:39.615Z,29.42
2018-04-12T12:52:07.953Z,30.09
2018-04-12T12:54:37.105Z,30.87
2018-04-12T12:57:05.476Z,30.32
2018-04-12T12:59:33.780Z,30.44
2018-04-12T13:02:02.120Z,29.99
2018-04-12T13:04:30.452Z,29.41
2018-04-12T13:06:58.850Z,29.58
2018-04-12T13:09:27.161Z,28.32
2018-04-12T13:11:55.616Z,26.66
2018-04-12T13:14:23.986Z,26.93
2018-04-12T13:16:52.314Z,26.74
2018-04-12T13:19:20.782Z,25.69
2018-04-12T13:21:49.113Z,25.37
2018-04-12T13:24:17.531Z,24.89
2018-04-12T13:26:45.839Z,24.59
2018-04-12T13:29:14.163Z,24.58
2018-04-12T13:31:42.473Z,24.59
2018-04-12T13:34:10.794Z,23.72
2018-04-12T13:36:39.190Z,24.17
2018-04-12T13:39:07.558Z,24.54
2018-04-12T13:41:35.892Z,24.95
2018-04-12T13:44:04.208Z,26.09
2018-04-12T13:46:32.593Z,26.33
2018-04-12T13:49:00.911Z,26.47
2018-04-12T13:51:29.241Z,27.73
2018-04-12T13:53:57.607Z,28.34
2018-04-12T13:56:25.931Z,28.65
2018-04-12T13:58:54.249Z,27.93
2018-04-12T14:01:22.572Z,26.49
2018-04-12T14:03:50.947Z,25.58
2018-04-12T14:06:19.266Z,25.99
2018-04-12T14:08:47.590Z,25.16
2018-04-12T14:11:15.961Z,25.01
2018-04-12T14:13:44.344Z,25.04
2018-04-12T14:16:12.734Z,24.82
2018-04-12T14:18:41.050Z,24.82
2018-04-12T14:21:09.366Z,24.69
2018-04-12T14:23:37.712Z,24.62
2018-04-12T14:26:06.041Z,24.35
2018-04-12T14:28:34.361Z,24.20
2018-04-12T14:31:02.785Z,23.65
2018-04-12T14:33:32.461Z,23.76
2018-04-12T14:36:00.805Z,23.73
2018-04-12T14:38:29.153Z,23.85
2018-04-12T14:40:57.465Z,23.76
2018-04-12T14:43:25.803Z,23.52
2018-04-12T14:45:54.124Z,23.17
2018-04-12T14:48:22.433Z,23.23
2018-04-12T14:50:50.756Z,23.23
2018-04-12T14:53:19.132Z,23.35
2018-04-12T14:55:47.526Z,23.20
2018-04-12T14:58:15.859Z,23.27
2018-04-12T15:00:44.173Z,23.46
2018-04-12T15:03:12.496Z,23.38
2018-04-12T15:05:40.822Z,23.18
2018-04-12T15:08:09.179Z,23.21
2018-04-12T15:10:37.503Z,23.01
2018-04-12T15:13:05.904Z,23.05
2018-04-12T15:15:34.178Z,22.77
2018-04-12T15:18:02.632Z,22.88
2018-04-12T15:20:30.957Z,22.87
2018-04-12T15:22:59.286Z,23.03
2018-04-12T15:25:27.617Z,22.95
2018-04-12T15:27:55.927Z,22.90
2018-04-12T15:30:24.250Z,23.33
2018-04-12T15:32:52.604Z,23.28
2018-04-12T15:35:20.921Z,23.31
2018-04-12T15:37:49.348Z,23.28
2018-04-12T15:40:17.649Z,22.88
2018-04-12T15:42:45.979Z,23.12
2018-04-12T15:45:14.291Z,22.78
2018-04-12T15:47:42.613Z,22.62
2018-04-12T15:50:10.977Z,22.09
2018-04-12T15:52:39.353Z,22.00
2018-04-12T15:55:07.768Z,21.90
2018-04-12T15:57:36.501Z,21.97
2018-04-12T16:00:04.875Z,21.93
2018-04-12T16:02:33.197Z,21.85
2018-04-12T16:05:01.576Z,21.73
2018-04-12T16:07:29.898Z,21.42
2018-04-12T16:09:58.222Z,21.44
2018-04-12T16:12:26.606Z,21.27
2018-04-12T16:14:54.981Z,21.21
2018-04-12T16:17:23.291Z,21.24
2018-04-12T16:19:51.633Z,21.07
2018-04-12T16:22:19.946Z,20.90
2018-04-12T16:24:48.332Z,20.82
2018-04-12T16:27:16.854Z,20.65
2018-04-12T16:29:45.296Z,20.39
2018-04-12T16:32:14.593Z,20.48
2018-04-12T16:34:42.929Z,20.28
2018-04-12T16:37:11.281Z,20.37
2018-04-12T16:39:39.605Z,20.17
2018-04-12T16:42:07.921Z,20.26
2018-04-12T16:44:36.237Z,20.23
2018-04-12T16:47:04.565Z,20.04
2018-04-12T16:49:32.868Z,20.04
2018-04-12T16:52:01.182Z,19.94
2018-04-12T16:54:29.505Z,19.98
2018-04-12T16:56:57.952Z,19.89
2018-04-12T16:59:26.277Z,19.77
2018-04-12T17:01:54.599Z,19.78
2018-04-12T17:04:22.921Z,19.67
2018-04-12T17:06:51.325Z,19.66
2018-04-12T17:09:19.637Z,19.57
2018-04-12T17:11:47.956Z,19.60
2018-04-12T17:14:16.270Z,19.48
2018-04-12T17:16:44.592Z,19.37
2018-04-12T17:19:12.958Z,19.44
2018-04-12T17:21:41.250Z,19.40
2018-04-12T17:24:09.618Z,19.39
2018-04-12T17:26:37.962Z,19.23
2018-04-12T17:29:06.249Z,19.14
2018-04-12T17:31:34.553Z,19.30
2018-04-12T17:34:03.806Z,19.18
2018-04-12T17:36:32.168Z,19.11
2018-04-12T17:39:00.469Z,18.99
2018-04-12T17:41:28.802Z,19.05
2018-04-12T17:43:57.131Z,19.03
2018-04-12T17:46:25.504Z,18.98
2018-04-12T17:48:54.858Z,18.83
2018-04-12T17:51:23.122Z,18.80
2018-04-12T17:53:51.557Z,18.72
2018-04-12T17:56:19.930Z,18.79
2018-04-12T17:58:48.309Z,18.75
2018-04-12T18:01:16.655Z,18.72
2018-04-12T18:03:45.003Z,18.66
2018-04-12T18:06:13.323Z,18.56
2018-04-12T18:08:41.721Z,18.56
2018-04-12T18:11:10.045Z,18.45
2018-04-12T18:13:38.361Z,18.36
2018-04-12T18:16:06.685Z,18.35
2018-04-12T18:18:34.996Z,18.33
2018-04-12T18:21:03.402Z,18.32
2018-04-12T18:23:31.786Z,18.25
2018-04-12T18:26:00.106Z,18.20
2018-04-12T18:28:28.443Z,18.20
2018-04-12T18:30:56.769Z,18.23
2018-04-12T18:33:25.097Z,18.15
2018-04-12T18:35:53.465Z,18.17
2018-04-12T18:38:21.889Z,18.16
2018-04-12T18:40:50.189Z,18.09
2018-04-12T18:43:18.538Z,18.04
2018-04-12T18:45:46.922Z,17.98
2018-04-12T18:48:15.253Z,17.92
2018-04-12T18:50:43.565Z,17.87
2018-04-12T18:53:11.936Z,17.81
2018-04-12T18:55:40.263Z,17.81
2018-04-12T18:58:08.597Z,17.81
2018-04-12T19:00:36.920Z,17.80
2018-04-12T19:03:05.246Z,17.85
2018-04-12T19:05:33.565Z,17.79
2018-04-12T19:08:01.881Z,17.69
2018-04-12T19:10:30.182Z,17.69
2018-04-12T19:12:58.641Z,17.60
2018-04-12T19:15:26.971Z,17.57
2018-04-12T19:17:55.290Z,17.63
2018-04-12T19:20:23.622Z,17.62
2018-04-12T19:22:52.045Z,17.45
2018-04-12T19:25:20.349Z,17.38
2018-04-12T19:27:48.704Z,17.30
2018-04-12T19:30:17.025Z,17.32
2018-04-12T19:32:45.357Z,17.45
2018-04-12T19:35:13.687Z,17.30
2018-04-12T19:37:41.985Z,17.20
2018-04-12T19:40:10.324Z,17.17
2018-04-12T19:42:38.676Z,17.18
2018-04-12T19:45:06.991Z,17.11
2018-04-12T19:47:35.309Z,16.97
2018-04-12T19:50:03.653Z,17.12
2018-04-12T19:52:31.986Z,16.96
2018-04-12T19:55:00.313Z,17.02
2018-04-12T19:57:28.637Z,16.93
2018-04-12T19:59:56.951Z,16.87
2018-04-12T20:02:25.256Z,16.75
2018-04-12T20:04:53.573Z,16.50
2018-04-12T20:07:21.904Z,16.44
2018-04-12T20:09:50.220Z,16.29
2018-04-12T20:12:18.566Z,16.32
2018-04-12T20:14:46.885Z,16.31
2018-04-12T20:17:15.241Z,16.17
2018-04-12T20:19:43.554Z,16.10
2018-04-12T20:22:11.935Z,16.36
2018-04-12T20:24:40.250Z,16.21
2018-04-12T20:27:08.649Z,15.98
2018-04-12T20:29:36.970Z,15.83
2018-04-12T20:32:05.297Z,15.73
2018-04-12T20:34:33.623Z,15.77
2018-04-12T20:37:01.929Z,15.78
2018-04-12T20:39:30.330Z,15.77
2018-04-12T20:41:58.662Z,15.52
2018-04-12T20:44:27.042Z,15.25
2018-04-12T20:46:55.369Z,15.32
2018-04-12T20:49:23.677Z,15.22
2018-04-12T20:51:51.993Z,14.87
2018-04-12T20:54:20.444Z,14.87
2018-04-12T20:56:48.746Z,15.19
2018-04-12T20:59:17.204Z,15.24
2018-04-12T21:01:45.579Z,15.22
2018-04-12T21:04:13.872Z,15.30
2018-04-12T21:06:42.198Z,15.43
2018-04-12T21:09:10.506Z,15.28
2018-04-12T21:11:38.824Z,15.18
2018-04-12T21:14:07.146Z,14.91
2018-04-12T21:16:35.497Z,14.61
2018-04-12T21:19:03.920Z,14.62
2018-04-12T21:21:32.230Z,14.50
2018-04-12T21:24:00.638Z,14.24
2018-04-12T21:26:28.953Z,14.40
2018-04-12T21:28:57.277Z,14.25
2018-04-12T21:31:25.593Z,14.37
2018-04-12T21:33:53.945Z,14.41
2018-04-12T21:36:22.271Z,14.38
2018-04-12T21:38:50.600Z,14.29
2018-04-12T21:41:18.915Z,14.56
2018-04-12T21:43:47.234Z,14.63
2018-04-12T21:46:15.549Z,14.45
2018-04-12T21:48:43.901Z,14.22
2018-04-12T21:51:12.285Z,14.30
2018-04-12T21:53:40.798Z,14.20
2018-04-12T21:56:09.121Z,14.18
2018-04-12T21:58:37.517Z,13.99
2018-04-12T22:01:05.852Z,13.92
2018-04-12T22:03:34.179Z,14.02
2018-04-12T22:06:02.559Z,14.11
2018-04-12T22:08:30.888Z,13.98
2018-04-12T22:10:59.213Z,14.10
2018-04-12T22:13:27.544Z,13.89
2018-04-12T22:15:55.837Z,13.78
2018-04-12T22:18:24.250Z,13.92
2018-04-12T22:20:52.625Z,14.13
2018-04-12T22:23:21.001Z,13.80
2018-04-12T22:25:49.352Z,13.91
2018-04-12T22:28:17.670Z,13.93
2018-04-12T22:30:46.009Z,14.05
2018-04-12T22:33:14.326Z,14.03
2018-04-12T22:35:42.688Z,14.07
2018-04-12T22:38:10.992Z,13.97
2018-04-12T22:40:39.344Z,13.86
2018-04-12T22:43:07.660Z,13.65
2018-04-12T22:45:36.100Z,13.63
2018-04-12T22:48:04.422Z,13.61
2018-04-12T22:50:32.757Z,13.76
2018-04-12T22:53:01.132Z,13.49
2018-04-12T22:55:29.500Z,13.73
2018-04-12T22:57:57.814Z,13.57
2018-04-12T23:00:26.121Z,13.34
2018-04-12T23:02:54.533Z,13.32
2018-04-12T23:05:22.913Z,13.45
2018-04-12T23:07:51.296Z,13.67
2018-04-12T23:10:19.611Z,13.68
2018-04-12T23:12:48.049Z,13.65
2018-04-12T23:15:16.364Z,13.76
2018-04-12T23:17:44.809Z,13.64
2018-04-12T23:20:13.141Z,13.57
2018-04-12T23:22:41.484Z,13.65
2018-04-12T23:25:09.836Z,13.70
2018-04-12T23:27:38.226Z,13.64
2018-04-12T23:30:06.606Z,13.59
2018-04-12T23:32:34.937Z,13.34
2018-04-12T23:35:03.345Z,13.17
2018-04-12T23:37:31.721Z,13.04
2018-04-12T23:40:00.156Z,13.21
2018-04-12T23:42:28.493Z,13.39
2018-04-12T23:44:56.837Z,13.57
2018-04-12T23:47:25.205Z,13.51
2018-04-12T23:49:53.626Z,13.68
2018-04-12T23:52:21.934Z,13.65
2018-04-12T23:54:50.273Z,13.59
2018-04-12T23:57:18.595Z,13.47
2018-04-12T23:59:46.975Z,13.51
